createdAt,value
2022-11-23T00:01:17.927Z,0.20
2022-11-23T00:03:46.927Z,0.30
2022-11-23T00:06:15.457Z,0.30
2022-11-23T00:08:43.639Z,0.22
2022-11-23T00:11:11.865Z,0.30
2022-11-23T00:13:42.074Z,0.20
2022-11-23T00:16:13.656Z,0.30
2022-11-23T00:18:41.980Z,0.20
2022-11-23T00:21:11.441Z,0.20
2022-11-23T00:23:39.693Z,0.20
2022-11-23T00:26:07.928Z,0.30
2022-11-23T00:28:38.830Z,0.20
2022-11-23T00:31:08.673Z,0.30
2022-11-23T00:33:36.993Z,0.22
2022-11-23T00:36:09.269Z,0.20
2022-11-23T00:38:37.788Z,0.20
2022-11-23T00:41:08.147Z,0.20
2022-11-23T00:43:36.814Z,0.20
2022-11-23T00:46:11.340Z,0.40
2022-11-23T00:48:39.945Z,0.20
2022-11-23T00:51:11.158Z,0.20
2022-11-23T00:53:41.273Z,0.30
2022-11-23T00:56:09.822Z,0.20
2022-11-23T00:58:39.245Z,0.20
2022-11-23T01:01:10.772Z,0.30
2022-11-23T01:03:40.393Z,0.20
2022-11-23T01:06:10.268Z,0.20
2022-11-23T01:08:38.928Z,0.20
2022-11-23T01:11:08.889Z,0.20
2022-11-23T01:13:38.378Z,0.20
2022-11-23T01:16:08.436Z,0.20
2022-11-23T01:18:38.956Z,0.30
2022-11-23T01:21:07.431Z,0.20
2022-11-23T01:23:35.535Z,0.28
2022-11-23T01:26:09.297Z,0.20
2022-11-23T01:28:38.314Z,0.20
2022-11-23T01:31:08.186Z,0.20
2022-11-23T01:33:36.663Z,0.30
2022-11-23T01:36:12.152Z,0.20
2022-11-23T01:41:09.158Z,0.20
2022-11-23T01:43:37.195Z,0.30
2022-11-23T01:46:06.878Z,0.30
2022-11-23T01:48:39.570Z,0.30
2022-11-23T01:51:11.130Z,0.28
2022-11-23T01:53:41.773Z,0.30
2022-11-23T01:56:16.144Z,0.20
2022-11-23T01:58:47.826Z,0.30
2022-11-23T02:01:16.249Z,0.30
2022-11-23T02:03:45.444Z,0.30
2022-11-23T02:06:16.512Z,0.20
2022-11-23T02:08:47.029Z,0.25
2022-11-23T02:11:16.334Z,0.20
2022-11-23T02:13:46.730Z,0.20
2022-11-23T02:16:15.359Z,0.22
2022-11-23T02:18:46.558Z,0.30
2022-11-23T02:21:15.122Z,0.20
2022-11-23T02:23:56.592Z,0.30
2022-11-23T02:26:28.013Z,0.30
2022-11-23T02:29:00.333Z,0.30
2022-11-23T02:31:30.693Z,0.30
2022-11-23T02:33:58.737Z,0.28
2022-11-23T02:36:40.087Z,0.30
2022-11-23T02:39:11.384Z,0.20
2022-11-23T02:41:44.415Z,0.30
2022-11-23T02:44:28.572Z,0.30
2022-11-23T02:46:56.979Z,0.30
2022-11-23T02:49:25.135Z,0.30
2022-11-23T02:51:53.403Z,0.20
2022-11-23T02:54:21.792Z,0.30
2022-11-23T02:56:51.442Z,0.30
2022-11-23T02:59:20.824Z,0.20
2022-11-23T03:01:52.338Z,0.20
2022-11-23T03:04:27.169Z,0.25
2022-11-23T03:06:56.096Z,0.30
2022-11-23T03:09:26.241Z,0.20
2022-11-23T03:11:56.211Z,0.30
2022-11-23T03:14:26.021Z,0.28
2022-11-23T03:16:59.436Z,0.28
2022-11-23T03:19:28.236Z,0.28
2022-11-23T03:21:56.331Z,0.22
2022-11-23T03:24:24.515Z,0.30
2022-11-23T03:26:56.001Z,0.30
2022-11-23T03:29:26.575Z,0.22
2022-11-23T03:31:56.515Z,0.22
2022-11-23T03:34:25.746Z,0.20
2022-11-23T03:36:54.107Z,0.30
2022-11-23T03:39:22.641Z,0.30
2022-11-23T03:42:09.783Z,0.20
2022-11-23T03:44:37.990Z,0.30
2022-11-23T03:47:06.655Z,0.30
2022-11-23T03:49:36.690Z,0.30
2022-11-23T03:52:05.388Z,0.25
2022-11-23T03:54:33.863Z,0.30
2022-11-23T03:57:02.149Z,0.30
2022-11-23T03:59:32.304Z,0.20
2022-11-23T04:02:01.101Z,0.20
2022-11-23T04:04:33.691Z,0.22
2022-11-23T04:07:24.753Z,0.20
2022-11-23T04:09:55.917Z,0.20
2022-11-23T04:12:52.965Z,0.20
2022-11-23T04:15:22.913Z,0.22
2022-11-23T04:17:51.237Z,0.30
2022-11-23T04:20:19.876Z,0.20
2022-11-23T04:22:49.237Z,0.30
2022-11-23T04:25:17.938Z,0.22
2022-11-23T04:27:48.095Z,0.30
2022-11-23T04:30:16.784Z,0.30
2022-11-23T04:32:47.699Z,0.20
2022-11-23T04:35:16.805Z,0.22
2022-11-23T04:37:47.921Z,0.30
2022-11-23T04:40:16.806Z,0.20
2022-11-23T04:42:58.858Z,0.30
2022-11-23T04:45:31.048Z,0.30
2022-11-23T04:48:05.740Z,0.20
2022-11-23T04:50:35.644Z,0.30
2022-11-23T04:53:05.656Z,0.20
2022-11-23T04:55:43.160Z,0.20
2022-11-23T04:58:12.264Z,0.30
2022-11-23T05:00:41.133Z,0.20
2022-11-23T05:03:12.473Z,0.20
2022-11-23T05:05:43.158Z,0.30
2022-11-23T05:08:11.798Z,0.20
2022-11-23T05:10:51.325Z,0.30
2022-11-23T05:13:20.439Z,0.30
2022-11-23T05:15:50.395Z,0.30
2022-11-23T05:18:25.997Z,0.30
2022-11-23T05:20:54.896Z,0.30
2022-11-23T05:23:23.575Z,0.30
2022-11-23T05:25:54.262Z,0.30
2022-11-23T05:28:39.597Z,0.30
2022-11-23T05:31:09.061Z,0.30
2022-11-23T05:33:39.585Z,0.30
2022-11-23T05:36:13.737Z,0.20
2022-11-23T05:38:43.255Z,0.25
2022-11-23T05:41:17.012Z,0.20
2022-11-23T05:43:46.148Z,0.30
2022-11-23T05:46:19.880Z,0.30
2022-11-23T05:48:49.965Z,0.30
2022-11-23T05:51:18.773Z,0.30
2022-11-23T05:53:49.398Z,0.30
2022-11-23T05:56:24.490Z,0.30
2022-11-23T05:59:16.698Z,0.30
2022-11-23T06:01:49.766Z,0.30
2022-11-23T06:04:26.966Z,0.30
2022-11-23T06:07:01.151Z,0.30
2022-11-23T06:09:38.144Z,0.28
2022-11-23T06:12:09.915Z,0.20
2022-11-23T06:14:38.372Z,0.30
2022-11-23T06:17:07.033Z,0.30
2022-11-23T06:19:41.156Z,0.30
2022-11-23T06:22:09.808Z,0.20
2022-11-23T06:24:44.968Z,0.30
2022-11-23T06:27:31.446Z,0.30
2022-11-23T06:30:01.512Z,0.30
2022-11-23T06:32:32.372Z,0.20
2022-11-23T06:35:03.750Z,0.30
2022-11-23T06:37:35.456Z,0.20
2022-11-23T06:40:03.544Z,0.22
2022-11-23T06:42:38.889Z,0.30
2022-11-23T06:45:13.083Z,0.30
2022-11-23T06:47:41.521Z,0.30
2022-11-23T06:50:11.571Z,0.30
2022-11-23T06:52:40.457Z,0.22
2022-11-23T06:55:09.080Z,0.20
2022-11-23T06:57:37.116Z,0.20
2022-11-23T07:00:06.289Z,0.30
2022-11-23T07:02:38.913Z,0.20
2022-11-23T07:05:08.131Z,0.20
2022-11-23T07:07:38.411Z,0.30
2022-11-23T07:10:14.228Z,0.20
2022-11-23T07:12:55.798Z,0.30
2022-11-23T07:15:25.938Z,0.20
2022-11-23T07:17:54.353Z,0.30
2022-11-23T07:20:24.718Z,0.20
2022-11-23T07:23:02.655Z,0.20
2022-11-23T07:25:31.184Z,0.20
2022-11-23T07:28:02.603Z,0.17
2022-11-23T07:30:32.571Z,0.10
2022-11-23T07:33:02.208Z,0.10
2022-11-23T07:35:31.768Z,0.10
2022-11-23T07:38:01.826Z,0.10
2022-11-23T07:40:30.199Z,0.10
2022-11-23T07:43:01.745Z,0.10
2022-11-23T07:45:29.971Z,0.10
2022-11-23T07:48:01.789Z,0.10
2022-11-23T07:50:30.595Z,0.10
2022-11-23T07:52:59.080Z,0.10
2022-11-23T07:55:28.675Z,0.10
2022-11-23T07:57:56.795Z,0.10
2022-11-23T08:00:26.472Z,0.20
2022-11-23T08:03:25.734Z,0.10
2022-11-23T08:05:42.823Z,0.10
2022-11-23T08:08:12.032Z,0.10
2022-11-23T08:10:46.073Z,0.10
2022-11-23T08:13:15.507Z,0.10
2022-11-23T08:15:45.635Z,0.10
2022-11-23T08:18:16.844Z,0.10
2022-11-23T08:20:44.866Z,0.10
2022-11-23T08:23:13.063Z,0.10
2022-11-23T08:25:42.546Z,0.10
2022-11-23T08:28:11.201Z,0.10
2022-11-23T08:30:39.844Z,0.10
2022-11-23T08:33:09.551Z,0.10
2022-11-23T08:35:38.982Z,0.00
2022-11-23T08:38:08.130Z,0.10
2022-11-23T08:40:37.056Z,0.10
2022-11-23T08:43:07.064Z,0.10
2022-11-23T08:45:35.149Z,0.10
2022-11-23T08:48:04.671Z,0.10
2022-11-23T08:50:35.523Z,0.10
2022-11-23T08:53:03.670Z,0.10
2022-11-23T08:55:31.634Z,0.10
2022-11-23T08:58:00.545Z,0.00
2022-11-23T09:00:31.004Z,0.10
2022-11-23T09:02:59.465Z,0.00
2022-11-23T09:05:27.951Z,0.00
2022-11-23T09:07:56.082Z,0.00
2022-11-23T09:10:24.266Z,0.10
2022-11-23T09:12:52.495Z,0.00
2022-11-23T09:15:20.924Z,0.10
2022-11-23T09:17:50.311Z,0.00
2022-11-23T09:20:18.513Z,0.08
2022-11-23T09:22:52.617Z,0.00
2022-11-23T09:25:20.820Z,0.10
2022-11-23T09:27:49.682Z,0.00
2022-11-23T09:30:18.588Z,0.10
2022-11-23T09:32:46.697Z,0.10
2022-11-23T09:35:16.590Z,0.10
2022-11-23T09:37:44.752Z,0.00
2022-11-23T09:40:17.341Z,0.10
2022-11-23T09:43:14.958Z,0.00
2022-11-23T09:45:49.120Z,0.10
2022-11-23T09:48:31.620Z,0.10
2022-11-23T09:51:06.430Z,0.10
2022-11-23T09:53:39.979Z,0.00
2022-11-23T09:56:17.827Z,0.00
2022-11-23T09:58:46.415Z,0.00
2022-11-23T10:01:16.452Z,0.00
2022-11-23T10:03:49.137Z,0.00
2022-11-23T10:06:25.556Z,0.00
2022-11-23T10:09:09.396Z,0.00
2022-11-23T10:11:56.276Z,0.00
2022-11-23T10:14:40.768Z,0.00
2022-11-23T10:17:17.102Z,0.00
2022-11-23T10:20:01.744Z,0.00
2022-11-23T10:22:39.333Z,0.00
2022-11-23T10:25:16.690Z,0.00
2022-11-23T10:27:47.142Z,0.00
2022-11-23T10:30:18.221Z,0.05
2022-11-23T10:32:52.103Z,0.00
2022-11-23T10:35:26.621Z,0.10
2022-11-23T10:38:06.485Z,0.00
2022-11-23T10:40:35.166Z,0.00
2022-11-23T10:43:11.145Z,0.00
2022-11-23T10:45:39.125Z,0.00
2022-11-23T10:48:07.910Z,0.03
2022-11-23T10:50:40.368Z,0.10
2022-11-23T10:53:23.112Z,0.00
2022-11-23T10:55:55.037Z,0.00
2022-11-23T10:58:28.354Z,0.00
2022-11-23T11:01:07.383Z,0.03
2022-11-23T11:03:36.839Z,0.10
2022-11-23T11:06:09.910Z,0.00
2022-11-23T11:08:51.898Z,0.10
2022-11-23T11:11:27.125Z,0.00
2022-11-23T11:14:05.072Z,0.10
2022-11-23T11:16:34.980Z,0.03
2022-11-23T11:19:23.119Z,0.00
2022-11-23T11:21:51.513Z,0.00
2022-11-23T11:24:24.512Z,0.03
2022-11-23T11:26:54.553Z,0.08
2022-11-23T11:29:38.644Z,0.00
2022-11-23T11:32:13.684Z,0.10
2022-11-23T11:34:47.347Z,0.08
2022-11-23T11:37:24.916Z,0.03
2022-11-23T11:39:58.828Z,0.10
2022-11-23T11:42:35.163Z,0.05
2022-11-23T11:45:06.231Z,0.00
2022-11-23T11:47:41.270Z,0.00
2022-11-23T11:50:20.363Z,0.10
2022-11-23T11:52:49.923Z,0.00
2022-11-23T11:55:23.722Z,0.00
2022-11-23T11:57:57.017Z,0.00
2022-11-23T12:00:25.240Z,0.10
2022-11-23T12:03:07.735Z,0.00
2022-11-23T12:05:42.487Z,0.00
2022-11-23T12:08:14.559Z,0.05
2022-11-23T12:10:50.102Z,0.00
2022-11-23T12:13:20.937Z,0.00
2022-11-23T12:15:54.194Z,0.00
2022-11-23T12:18:58.756Z,0.00
2022-11-23T12:21:50.051Z,0.00
2022-11-23T12:24:31.836Z,0.00
2022-11-23T12:27:11.782Z,0.00
2022-11-23T12:29:56.360Z,0.00
2022-11-23T12:32:31.959Z,0.00
2022-11-23T12:35:28.173Z,0.00
2022-11-23T12:38:06.796Z,0.10
2022-11-23T12:40:48.892Z,0.00
2022-11-23T12:43:25.153Z,0.00
2022-11-23T12:46:17.429Z,0.00
2022-11-23T12:48:57.521Z,0.10
2022-11-23T12:51:35.802Z,0.00
2022-11-23T12:54:17.182Z,0.00
2022-11-23T12:57:00.126Z,0.00
2022-11-23T12:59:40.892Z,0.00
2022-11-23T13:02:15.781Z,0.00
2022-11-23T13:05:09.202Z,0.03
2022-11-23T13:08:01.847Z,0.00
2022-11-23T13:10:54.527Z,0.10
2022-11-23T13:13:37.008Z,0.00
2022-11-23T13:16:26.918Z,0.10
2022-11-23T13:19:10.189Z,0.00
2022-11-23T13:21:40.739Z,0.00
2022-11-23T13:24:31.372Z,0.03
2022-11-23T13:27:32.334Z,0.00
2022-11-23T13:30:08.469Z,0.10
2022-11-23T13:32:47.871Z,0.10
2022-11-23T13:35:53.533Z,0.00
2022-11-23T13:38:39.328Z,0.10
2022-11-23T13:41:55.366Z,0.03
2022-11-23T13:44:26.184Z,0.10
2022-11-23T13:47:06.822Z,0.10
2022-11-23T13:49:44.254Z,0.05
2022-11-23T13:52:32.272Z,0.00
2022-11-23T13:55:17.165Z,0.00
2022-11-23T13:57:46.911Z,0.10
2022-11-23T14:00:47.482Z,0.03
2022-11-23T14:03:48.556Z,0.10
2022-11-23T14:06:27.275Z,0.10
2022-11-23T14:09:02.341Z,0.10
2022-11-23T14:11:31.475Z,0.10
2022-11-23T14:14:02.625Z,0.10
2022-11-23T14:16:53.946Z,0.08
2022-11-23T14:19:27.742Z,0.10
2022-11-23T14:22:05.995Z,0.13
2022-11-23T14:24:59.328Z,0.10
2022-11-23T14:27:47.876Z,0.10
2022-11-23T14:30:30.089Z,0.10
2022-11-23T14:33:09.634Z,0.10
2022-11-23T14:35:47.843Z,0.00
2022-11-23T14:38:54.659Z,0.10
2022-11-23T14:41:27.440Z,0.10
2022-11-23T14:43:56.592Z,0.10
2022-11-23T14:46:25.967Z,0.10
2022-11-23T14:49:03.853Z,0.10
2022-11-23T14:51:34.101Z,0.10
2022-11-23T14:54:09.502Z,0.10
2022-11-23T14:56:43.931Z,0.17
2022-11-23T14:59:22.858Z,0.10
2022-11-23T15:01:53.948Z,0.10
2022-11-23T15:04:27.354Z,0.10
2022-11-23T15:07:00.566Z,0.15
2022-11-23T15:09:43.827Z,0.20
2022-11-23T15:12:23.288Z,0.20
2022-11-23T15:14:52.201Z,0.10
2022-11-23T15:17:22.627Z,0.20
2022-11-23T15:19:58.845Z,0.15
2022-11-23T15:22:28.409Z,0.20
2022-11-23T15:25:06.740Z,0.20
2022-11-23T15:27:41.129Z,0.20
2022-11-23T15:30:17.429Z,0.20
2022-11-23T15:32:45.975Z,0.20
2022-11-23T15:35:16.535Z,0.20
2022-11-23T15:37:47.265Z,0.20
2022-11-23T15:40:16.695Z,0.10
2022-11-23T15:42:48.109Z,0.13
2022-11-23T15:45:39.347Z,0.20
2022-11-23T15:48:13.195Z,0.20
2022-11-23T15:50:49.452Z,0.30
2022-11-23T15:53:18.009Z,0.20
2022-11-23T15:55:46.393Z,0.20
2022-11-23T15:58:18.498Z,0.20
2022-11-23T16:00:51.645Z,0.20
2022-11-23T16:03:33.206Z,0.20
2022-11-23T16:06:17.324Z,0.20
2022-11-23T16:08:45.430Z,0.20
2022-11-23T16:11:30.221Z,0.20
2022-11-23T16:14:18.050Z,0.20
2022-11-23T16:16:48.732Z,0.20
2022-11-23T16:19:26.572Z,0.10
2022-11-23T16:22:02.228Z,0.20
2022-11-23T16:24:32.874Z,0.20
2022-11-23T16:27:01.294Z,0.20
2022-11-23T16:29:35.048Z,0.20
2022-11-23T16:32:07.043Z,0.20
2022-11-23T16:34:35.732Z,0.20
2022-11-23T16:37:05.395Z,0.20
2022-11-23T16:39:33.482Z,0.20
2022-11-23T16:42:01.867Z,0.20
2022-11-23T16:44:35.187Z,0.20
2022-11-23T16:47:20.574Z,0.20
2022-11-23T16:49:48.710Z,0.20
2022-11-23T16:52:16.840Z,0.20
2022-11-23T16:54:45.429Z,0.20
2022-11-23T16:57:21.499Z,0.20
2022-11-23T16:59:51.757Z,0.20
2022-11-23T17:02:20.387Z,0.20
2022-11-23T17:04:48.545Z,0.20
2022-11-23T17:07:16.918Z,0.20
2022-11-23T17:09:45.335Z,0.20
2022-11-23T17:12:19.033Z,0.20
2022-11-23T17:14:49.020Z,0.30
2022-11-23T17:17:22.095Z,0.20
2022-11-23T17:19:51.464Z,0.20
2022-11-23T17:22:20.919Z,0.20
2022-11-23T17:24:50.325Z,0.20
2022-11-23T17:27:22.501Z,0.30
2022-11-23T17:29:59.210Z,0.20
2022-11-23T17:32:29.388Z,0.20
2022-11-23T17:34:57.704Z,0.20
2022-11-23T17:37:26.500Z,0.20
2022-11-23T17:39:54.717Z,0.20
2022-11-23T17:42:22.804Z,0.20
2022-11-23T17:44:51.430Z,0.20
2022-11-23T17:47:25.298Z,0.20
2022-11-23T17:49:54.846Z,0.20
2022-11-23T17:52:35.312Z,0.20
2022-11-23T17:55:03.986Z,0.22
2022-11-23T17:57:32.025Z,0.20
2022-11-23T18:00:03.221Z,0.30
2022-11-23T18:02:39.790Z,0.20
2022-11-23T18:05:10.404Z,0.20
2022-11-23T18:07:38.717Z,0.30
2022-11-23T18:10:07.502Z,0.20
2022-11-23T18:12:35.574Z,0.30
2022-11-23T18:15:03.588Z,0.20
2022-11-23T18:17:31.711Z,0.30
2022-11-23T18:19:59.946Z,0.20
2022-11-23T18:22:29.579Z,0.20
2022-11-23T18:25:00.009Z,0.20
2022-11-23T18:27:29.436Z,0.22
2022-11-23T18:29:57.793Z,0.30
2022-11-23T18:32:26.056Z,0.20
2022-11-23T18:34:54.141Z,0.25
2022-11-23T18:37:22.358Z,0.20
2022-11-23T18:39:51.775Z,0.20
2022-11-23T18:42:20.072Z,0.20
2022-11-23T18:44:48.141Z,0.20
2022-11-23T18:47:16.545Z,0.30
2022-11-23T18:49:53.310Z,0.20
2022-11-23T18:52:21.494Z,0.20
2022-11-23T18:54:52.369Z,0.20
2022-11-23T18:57:20.424Z,0.20
2022-11-23T19:00:04.066Z,0.20
2022-11-23T19:02:32.289Z,0.20
2022-11-23T19:05:00.586Z,0.30
2022-11-23T19:07:28.984Z,0.30
2022-11-23T19:09:58.603Z,0.20
2022-11-23T19:12:26.628Z,0.20
2022-11-23T19:14:54.918Z,0.20
2022-11-23T19:17:23.189Z,0.30
2022-11-23T19:19:51.345Z,0.25
2022-11-23T19:22:19.464Z,0.20
2022-11-23T19:24:47.661Z,0.20
2022-11-23T19:27:17.165Z,0.20
2022-11-23T19:29:45.203Z,0.20
2022-11-23T19:32:13.549Z,0.22
2022-11-23T19:34:41.761Z,0.20
2022-11-23T19:37:09.789Z,0.30
2022-11-23T19:39:37.840Z,0.20
2022-11-23T19:42:06.040Z,0.30
2022-11-23T19:44:36.046Z,0.20
2022-11-23T19:47:08.531Z,0.20
2022-11-23T19:49:40.341Z,0.20
2022-11-23T19:52:08.346Z,0.28
2022-11-23T19:54:36.455Z,0.30
2022-11-23T19:57:04.861Z,0.30
2022-11-23T19:59:33.558Z,0.20
2022-11-23T20:02:03.193Z,0.30
2022-11-23T20:04:31.851Z,0.20
2022-11-23T20:06:59.978Z,0.30
2022-11-23T20:09:28.643Z,0.30
2022-11-23T20:11:57.119Z,0.20
2022-11-23T20:14:25.369Z,0.22
2022-11-23T20:16:53.383Z,0.20
2022-11-23T20:19:22.834Z,0.20
2022-11-23T20:21:51.100Z,0.25
2022-11-23T20:24:19.506Z,0.20
2022-11-23T20:26:47.678Z,0.30
2022-11-23T20:29:15.957Z,0.30
2022-11-23T20:31:44.015Z,0.20
2022-11-23T20:34:16.686Z,0.22
2022-11-23T20:36:48.254Z,0.30
2022-11-23T20:39:16.465Z,0.30
2022-11-23T20:41:45.175Z,0.30
2022-11-23T20:44:15.167Z,0.30
2022-11-23T20:49:31.743Z,0.30
2022-11-23T20:52:01.982Z,0.20
2022-11-23T20:54:30.305Z,0.20
2022-11-23T20:57:00.388Z,0.20
2022-11-23T20:59:28.962Z,0.20
2022-11-23T21:01:57.037Z,0.20
2022-11-23T21:04:25.657Z,0.20
2022-11-23T21:06:54.592Z,0.30
2022-11-23T21:09:23.973Z,0.20
2022-11-23T21:12:09.595Z,0.22
2022-11-23T21:14:37.762Z,0.20
2022-11-23T21:17:06.173Z,0.20
2022-11-23T21:19:35.845Z,0.30
2022-11-23T21:22:05.604Z,0.20
2022-11-23T21:24:36.208Z,0.30
2022-11-23T21:27:06.157Z,0.28
2022-11-23T21:29:34.557Z,0.20
2022-11-23T21:32:02.611Z,0.20
2022-11-23T21:34:31.357Z,0.20
2022-11-23T21:36:59.852Z,0.20
2022-11-23T21:39:29.877Z,0.30
2022-11-23T21:41:59.393Z,0.30
2022-11-23T21:44:27.508Z,0.30
2022-11-23T21:46:55.721Z,0.30
2022-11-23T21:49:23.768Z,0.40
2022-11-23T21:51:51.894Z,0.30
2022-11-23T21:54:19.867Z,0.30
2022-11-23T21:56:48.552Z,0.30
2022-11-23T21:59:18.086Z,0.30
2022-11-23T22:01:46.141Z,0.30
2022-11-23T22:04:16.254Z,0.30
2022-11-23T22:06:45.466Z,0.20
2022-11-23T22:09:14.378Z,0.20
2022-11-23T22:11:44.401Z,0.30
2022-11-23T22:14:14.676Z,0.20
2022-11-23T22:16:45.643Z,0.30
2022-11-23T22:19:15.186Z,0.30
2022-11-23T22:21:45.063Z,0.32
2022-11-23T22:24:15.128Z,0.30
2022-11-23T22:26:43.226Z,0.20
2022-11-23T22:29:11.810Z,0.20
2022-11-23T22:31:40.489Z,0.30
2022-11-23T22:34:13.107Z,0.20
2022-11-23T22:36:41.748Z,0.20
2022-11-23T22:39:10.705Z,0.22
2022-11-23T22:41:38.922Z,0.30
2022-11-23T22:44:08.059Z,0.25
2022-11-23T22:46:36.760Z,0.20
2022-11-23T22:49:05.444Z,0.30
2022-11-23T22:51:35.139Z,0.20
2022-11-23T22:54:03.264Z,0.30
2022-11-23T22:56:32.084Z,0.25
2022-11-23T22:59:00.662Z,0.30
2022-11-23T23:01:30.579Z,0.30
2022-11-23T23:04:01.333Z,0.20
2022-11-23T23:06:31.509Z,0.30
2022-11-23T23:09:02.701Z,0.30
2022-11-23T23:11:33.393Z,0.20
2022-11-23T23:14:01.917Z,0.30
2022-11-23T23:16:30.378Z,0.22
2022-11-23T23:18:59.245Z,0.20
2022-11-23T23:21:29.082Z,0.20
2022-11-23T23:24:01.135Z,0.30
2022-11-23T23:26:30.017Z,0.25
2022-11-23T23:28:59.689Z,0.25
2022-11-23T23:31:29.913Z,0.30
2022-11-23T23:33:59.568Z,0.30
2022-11-23T23:36:27.636Z,0.30
2022-11-23T23:38:55.789Z,0.25
2022-11-23T23:41:25.235Z,0.30
2022-11-23T23:43:53.423Z,0.30
2022-11-23T23:46:21.798Z,0.20
2022-11-23T23:48:49.969Z,0.30
2022-11-23T23:51:21.444Z,0.20
2022-11-23T23:53:50.910Z,0.22
2022-11-23T23:56:21.089Z,0.30
2022-11-23T23:58:50.681Z,0.20
